Time;durP1;ratioP1;P1;durP2;ratioP2;P2;SDS_P1;SDS_P2;PMS_P1;PMS_P2;Temp;Humidity;BMP_temperature;BMP_pressure;BME280_temperature;BME280_humidity;BME280_pressure;Samples;Min_cycle;Max_cycle;Signal;HPM_P1;HPM_P2
2021/01/20 08:55:07;;;;;;;21.45;8.02;;;;;;;1.57;79.51;98188.22;5110178;27;20323;-74
2021/01/20 08:57:33;;;;;;;19.20;8.63;;;;;;;1.48;81.08;98180.47;5109608;28;20518;-67
2021/01/20 08:59:58;;;;;;;15.73;8.20;;;;;;;1.53;80.35;98178.81;5109995;28;20098;-73
2021/01/20 09:02:24;;;;;;;18.00;8.48;;;;;;;1.35;81.39;98171.00;5109659;28;20024;-75
2021/01/20 09:04:50;;;;;;;13.55;7.82;;;;;;;1.34;81.52;98171.84;5109671;28;20082;-69
2021/01/20 09:07:16;;;;;;;17.13;8.85;;;;;;;1.35;81.93;98171.84;5109773;28;20055;-65
2021/01/20 09:09:42;;;;;;;15.98;9.05;;;;;;;1.22;82.00;98173.47;5108426;28;20027;-73
2021/01/20 09:12:07;;;;;;;20.48;9.90;;;;;;;1.17;82.52;98175.13;5109458;28;20098;-73
2021/01/20 09:14:33;;;;;;;14.13;9.07;;;;;;;1.41;82.18;98168.53;5109458;28;20027;-71
2021/01/20 09:17:00;;;;;;;17.48;9.10;;;;;;;1.48;82.06;98170.28;5109827;28;20472;-73
2021/01/20 09:19:25;;;;;;;16.25;9.43;;;;;;;1.44;81.98;98168.53;5109376;28;20030;-66
2021/01/20 09:21:51;;;;;;;18.50;9.27;;;;;;;1.25;82.40;98168.38;5109356;28;20016;-75
2021/01/20 09:24:16;;;;;;;17.88;10.23;;;;;;;1.36;82.87;98165.94;5109349;28;20049;-73
2021/01/20 09:26:42;;;;;;;23.60;9.90;;;;;;;1.43;82.93;98166.81;5109452;28;20031;-67
2021/01/20 09:29:09;;;;;;;20.00;10.18;;;;;;;1.59;82.31;98163.53;5106155;27;20031;-65
2021/01/20 09:31:34;;;;;;;12.95;9.07;;;;;;;1.90;81.17;98153.56;5068376;28;20031;-65
2021/01/20 09:34:00;;;;;;;19.35;8.82;;;;;;;1.70;81.46;98155.97;5053678;28;20029;-73
2021/01/20 09:36:25;;;;;;;14.85;8.73;;;;;;;1.73;81.87;98159.38;5048649;28;20029;-68
2021/01/20 09:38:52;;;;;;;16.05;7.97;;;;;;;1.79;81.69;98156.06;5046699;28;20033;-67
2021/01/20 09:41:18;;;;;;;13.73;7.78;;;;;;;2.08;81.49;98156.22;5047869;28;20035;-73
2021/01/20 09:43:43;;;;;;;13.15;7.40;;;;;;;1.92;80.97;98151.84;5063520;28;20152;-73
2021/01/20 09:46:08;;;;;;;15.93;8.75;;;;;;;2.11;80.63;98153.66;5047102;28;20094;-65
2021/01/20 09:48:34;;;;;;;19.50;9.27;;;;;;;2.10;80.74;98151.97;5056010;28;20108;-74
2021/01/20 09:50:59;;;;;;;24.10;9.75;;;;;;;2.14;81.13;98148.59;5047457;28;20033;-75
2021/01/20 09:53:25;;;;;;;21.90;8.90;;;;;;;2.16;80.48;98152.00;5047676;28;20397;-74
2021/01/20 09:55:50;;;;;;;19.70;10.60;;;;;;;2.20;80.57;98153.72;5047534;28;21028;-75
2021/01/20 09:58:15;;;;;;;26.15;10.77;;;;;;;2.27;80.50;98142.69;5047735;28;20025;-65
2021/01/20 10:00:41;;;;;;;20.02;9.70;;;;;;;2.47;79.75;98136.81;5045334;28;20115;-71
2021/01/20 10:03:07;;;;;;;19.80;10.13;;;;;;;2.66;79.54;98138.59;5047128;28;20025;-67
2021/01/20 10:05:32;;;;;;;18.27;8.98;;;;;;;2.70;78.55;98135.16;5039623;28;20567;-68
2021/01/20 10:07:58;;;;;;;16.58;8.95;;;;;;;2.81;78.43;98128.38;5034550;28;20029;-67
2021/01/20 10:10:23;;;;;;;14.45;8.00;;;;;;;3.09;77.39;98136.09;5033508;28;20087;-71
2021/01/20 10:12:50;;;;;;;18.60;8.15;;;;;;;3.37;76.61;98123.31;5042899;28;21324;-73
2021/01/20 10:15:15;;;;;;;16.67;7.88;;;;;;;3.12;76.47;98125.88;5033771;28;20083;-66
2021/01/20 10:17:41;;;;;;;20.15;8.70;;;;;;;3.24;76.36;98118.22;5035560;28;20381;-68
2021/01/20 10:20:07;;;;;;;22.55;8.45;;;;;;;3.26;75.94;98116.50;5035366;28;20486;-73
2021/01/20 10:22:32;;;;;;;15.70;8.57;;;;;;;3.30;75.66;98107.97;5034332;28;20025;-68
2021/01/20 10:24:57;;;;;;;16.75;8.60;;;;;;;3.40;75.57;98102.84;5034613;28;20051;-68
2021/01/20 10:27:23;;;;;;;20.05;9.40;;;;;;;3.77;74.32;98096.84;5036176;28;20037;-72
2021/01/20 10:29:49;;;;;;;12.85;8.27;;;;;;;3.74;74.16;98089.13;5053868;28;20083;-70
2021/01/20 10:32:14;;;;;;;21.48;8.85;;;;;;;3.67;74.16;98087.44;5034213;28;20482;-75
2021/01/20 10:34:40;;;;;;;17.88;8.93;;;;;;;3.99;73.36;98084.81;5035544;28;20551;-75
2021/01/20 10:37:05;;;;;;;18.80;9.73;;;;;;;4.18;72.70;98079.63;5036208;28;20083;-70
2021/01/20 10:39:31;;;;;;;18.38;9.13;;;;;;;4.44;71.82;98071.78;5035702;28;20029;-67
2021/01/20 10:41:56;;;;;;;14.32;8.68;;;;;;;4.70;71.05;98069.97;5041936;28;20385;-69
2021/01/20 10:44:21;;;;;;;25.95;10.52;;;;;;;4.79;70.87;98067.34;5034956;28;20068;-74
2021/01/20 10:46:50;;;;;;;13.10;8.32;;;;;;;4.78;70.43;98060.47;5038319;28;20029;-74
2021/01/20 10:49:15;;;;;;;13.32;7.75;;;;;;;5.24;69.57;98056.72;5040969;28;20045;-72
2021/01/20 10:51:40;;;;;;;15.35;8.15;;;;;;;5.46;68.36;98062.50;5037058;28;20029;-68
2021/01/20 10:54:09;;;;;;;21.77;9.75;;;;;;;5.46;68.19;98057.38;5032832;28;20111;-67
2021/01/20 10:56:34;;;;;;;31.50;13.68;;;;;;;5.40;69.08;98043.72;5040561;28;20086;-67
2021/01/20 10:59:00;;;;;;;21.98;11.35;;;;;;;5.68;67.60;98038.31;5035559;28;20024;-69
2021/01/20 11:01:25;;;;;;;22.27;10.73;;;;;;;5.91;66.85;98033.81;5036955;28;20108;-75
2021/01/20 11:03:51;;;;;;;22.42;10.05;;;;;;;6.05;66.59;98017.38;5035197;28;20044;-75
2021/01/20 11:06:17;;;;;;;25.70;12.20;;;;;;;6.06;66.95;98024.22;5034683;28;20056;-73
2021/01/20 11:08:42;;;;;;;21.23;11.90;;;;;;;6.09;66.71;98017.34;5036823;28;20041;-67
2021/01/20 11:11:10;;;;;;;22.33;10.88;;;;;;;5.60;67.91;98009.28;5034899;28;20033;-68
2021/01/20 11:13:35;;;;;;;15.10;8.75;;;;;;;5.72;67.97;98009.16;5036425;28;20116;-70
2021/01/20 11:16:02;;;;;;;18.02;9.50;;;;;;;5.45;68.94;98005.16;5038926;28;20116;-67
2021/01/20 11:18:31;;;;;;;17.20;9.18;;;;;;;5.58;67.95;98003.31;5049742;28;20128;-74
2021/01/20 11:20:57;;;;;;;19.52;8.68;;;;;;;5.54;68.10;98006.78;5032449;28;20473;-68
2021/01/20 11:23:26;;;;;;;19.27;9.20;;;;;;;5.76;67.88;98000.56;5033404;28;20032;-73
2021/01/20 11:25:52;;;;;;;17.50;9.30;;;;;;;5.95;67.41;97995.19;5036177;28;20159;-72
2021/01/20 11:28:18;;;;;;;27.80;10.27;;;;;;;5.91;67.49;97979.84;5036191;28;20033;-67
2021/01/20 11:30:44;;;;;;;18.77;10.40;;;;;;;6.21;67.39;97990.59;5034728;28;20398;-67
2021/01/20 11:33:11;;;;;;;19.33;10.85;;;;;;;6.28;66.97;97984.47;5032167;28;20056;-67
2021/01/20 11:35:37;;;;;;;22.58;11.48;;;;;;;6.30;67.25;97981.91;5043293;28;20409;-70
2021/01/20 11:38:03;;;;;;;27.17;14.27;;;;;;;6.25;67.55;97976.81;5087951;28;20413;-68
2021/01/20 11:40:30;;;;;;;26.65;13.25;;;;;;;6.38;67.24;97975.78;5075251;28;20128;-67
2021/01/20 11:42:57;;;;;;;25.58;12.45;;;;;;;6.42;67.23;97969.69;5073703;28;20028;-71
2021/01/20 11:45:34;;;;;;;18.70;11.10;;;;;;;6.53;65.46;97959.28;5074292;28;20039;-67
2021/01/20 11:48:00;;;;;;;15.75;9.00;;;;;;;6.77;63.31;97963.19;5086467;28;20048;-73
2021/01/20 11:50:26;;;;;;;13.95;6.30;;;;;;;6.92;61.06;97955.22;5073529;28;20108;-67
2021/01/20 11:52:52;;;;;;;22.80;11.07;;;;;;;6.90;64.72;97959.53;5069981;28;20480;-67
2021/01/20 11:55:18;;;;;;;30.17;13.13;;;;;;;6.11;67.06;97955.59;5071774;28;20024;-67
2021/01/20 11:57:44;;;;;;;29.25;13.23;;;;;;;5.83;68.06;97945.63;5075936;28;20032;-75
2021/01/20 12:00:11;;;;;;;23.67;12.00;;;;;;;6.10;67.71;97943.59;5072614;28;20024;-69
2021/01/20 12:02:37;;;;;;;26.33;12.85;;;;;;;5.89;68.19;97945.53;5071909;28;20116;-67
2021/01/20 12:05:04;;;;;;;24.58;12.38;;;;;;;5.91;68.75;97937.81;5074600;28;20020;-70
2021/01/20 12:07:30;;;;;;;25.00;13.90;;;;;;;5.76;69.62;97928.59;5072272;28;20025;-73
2021/01/20 12:09:56;;;;;;;35.28;12.80;;;;;;;5.88;69.41;97933.56;5079697;28;20024;-73
2021/01/20 12:12:21;;;;;;;26.02;13.13;;;;;;;5.89;68.91;97918.97;5072453;28;20025;-71
2021/01/20 12:14:46;;;;;;;25.00;11.07;;;;;;;6.14;67.54;97909.22;5072449;28;20078;-67
2021/01/20 12:17:12;;;;;;;27.27;14.13;;;;;;;6.24;68.94;97905.69;5079687;28;20032;-67
2021/01/20 12:19:37;;;;;;;29.98;13.43;;;;;;;6.06;68.79;97906.78;5078851;28;20478;-67
2021/01/20 12:22:03;;;;;;;18.10;10.10;;;;;;;5.79;69.03;97902.81;5071807;28;20629;-68
2021/01/20 12:24:28;;;;;;;18.67;10.45;;;;;;;5.89;69.31;97901.81;5072897;28;20476;-75
2021/01/20 12:26:54;;;;;;;22.70;10.48;;;;;;;5.81;68.95;97901.09;5072841;28;20554;-69
2021/01/20 12:29:20;;;;;;;21.23;9.18;;;;;;;5.61;69.38;97892.81;5077706;28;20024;-75
2021/01/20 12:31:45;;;;;;;21.65;8.80;;;;;;;5.64;69.88;97882.47;5072645;28;20120;-69
2021/01/20 12:34:11;;;;;;;19.70;10.75;;;;;;;5.68;70.46;97874.69;5073576;28;20020;-69
2021/01/20 12:36:36;;;;;;;19.58;10.45;;;;;;;5.92;70.17;97873.56;5071470;28;20689;-69
2021/01/20 12:39:03;;;;;;;24.88;11.18;;;;;;;5.97;69.93;97864.94;5072572;28;20052;-72
2021/01/20 12:41:28;;;;;;;21.20;10.88;;;;;;;6.18;69.56;97859.44;5072439;28;20032;-69
2021/01/20 12:43:53;;;;;;;24.23;11.48;;;;;;;6.20;69.62;97859.44;5069430;28;20030;-71
2021/01/20 12:46:19;;;;;;;21.42;10.75;;;;;;;6.25;69.82;97853.34;5074272;28;20051;-68
2021/01/20 12:48:44;;;;;;;25.02;11.95;;;;;;;6.26;69.66;97851.63;5071994;28;20103;-73
2021/01/20 12:51:10;;;;;;;19.92;11.65;;;;;;;6.30;69.43;97853.28;5071276;28;20146;-76
2021/01/20 12:53:35;;;;;;;20.92;12.18;;;;;;;6.39;69.65;97843.69;5072547;28;20368;-69
2021/01/20 12:56:00;;;;;;;23.08;12.77;;;;;;;6.47;69.49;97845.28;5073848;28;20267;-73
2021/01/20 12:58:26;;;;;;;23.65;13.20;;;;;;;6.51;68.74;97847.78;5087515;28;20544;-75
2021/01/20 13:00:51;;;;;;;26.58;12.15;;;;;;;6.47;69.72;97845.28;5072321;28;20051;-75
2021/01/20 13:03:17;;;;;;;28.35;14.05;;;;;;;6.27;70.40;97845.59;5070829;28;20024;-69
2021/01/20 13:05:42;;;;;;;31.67;13.45;;;;;;;6.30;69.95;97833.56;5073214;28;20016;-72
2021/01/20 13:08:07;;;;;;;31.73;13.73;;;;;;;6.32;69.92;97831.78;5070768;28;20103;-70
2021/01/20 13:10:33;;;;;;;27.60;14.40;;;;;;;6.31;70.08;97824.97;5071667;28;20024;-76
2021/01/20 13:12:58;;;;;;;26.73;14.68;;;;;;;6.31;70.35;97822.38;5070407;28;20040;-72
2021/01/20 13:15:25;;;;;;;26.30;14.07;;;;;;;6.48;69.60;97819.53;5073253;28;20052;-70
2021/01/20 13:17:53;;;;;;;38.65;18.52;;;;;;;6.35;69.96;97816.31;5072046;28;20114;-67
2021/01/20 13:20:19;;;;;;;30.40;15.75;;;;;;;6.38;69.52;97816.28;5071850;28;20024;-67
2021/01/20 13:22:44;;;;;;;33.30;16.77;;;;;;;6.18;70.23;97818.31;5070971;28;20044;-73
2021/01/20 13:25:10;;;;;;;26.20;13.77;;;;;;;6.11;71.11;97816.72;5071480;28;20024;-75
2021/01/20 13:27:36;;;;;;;36.55;14.65;;;;;;;6.07;70.97;97815.06;5074614;28;20141;-69
2021/01/20 13:30:03;;;;;;;28.23;15.38;;;;;;;6.10;71.04;97800.44;5074225;28;20396;-72
2021/01/20 13:32:28;;;;;;;31.90;16.52;;;;;;;6.05;71.74;97802.25;5073310;28;20028;-73
2021/01/20 13:34:53;;;;;;;35.22;15.82;;;;;;;5.99;71.40;97796.31;5072177;28;20504;-75
2021/01/20 13:37:20;;;;;;;28.50;13.82;;;;;;;6.39;70.38;97788.81;5072466;28;20019;-69
2021/01/20 13:39:45;;;;;;;29.80;15.82;;;;;;;6.54;70.12;97791.13;5058599;28;20406;-69
2021/01/20 13:42:10;;;;;;;27.77;13.70;;;;;;;6.37;69.58;97788.84;5092473;28;20028;-75
2021/01/20 13:44:38;;;;;;;24.15;12.68;;;;;;;6.20;69.79;97793.44;5077036;28;20027;-75
2021/01/20 13:47:05;;;;;;;22.05;11.63;;;;;;;6.22;69.58;97786.53;5075452;28;20473;-71
2021/01/20 13:49:31;;;;;;;24.15;11.82;;;;;;;6.28;70.06;97775.28;5076187;28;20028;-69
2021/01/20 13:51:56;;;;;;;24.45;12.27;;;;;;;6.51;69.70;97785.19;5089766;27;20534;-75
2021/01/20 13:54:21;;;;;;;26.33;12.27;;;;;;;6.56;70.10;97778.22;5076399;28;20040;-69
2021/01/20 13:56:47;;;;;;;21.67;11.82;;;;;;;6.41;70.20;97775.03;5073683;28;20031;-69
2021/01/20 13:59:12;;;;;;;26.65;12.23;;;;;;;6.37;70.13;97778.53;5074432;28;20024;-69
2021/01/20 14:01:38;;;;;;;24.25;12.30;;;;;;;6.33;70.23;97781.19;5074560;28;20477;-69
2021/01/20 14:04:03;;;;;;;27.65;12.20;;;;;;;6.17;70.97;97780.59;5077256;28;20074;-72
2021/01/20 14:06:29;;;;;;;23.65;13.32;;;;;;;6.31;70.89;97778.66;5075146;28;20031;-69
2021/01/20 14:08:54;;;;;;;23.05;14.05;;;;;;;6.27;69.91;97771.00;5075594;28;20489;-73
2021/01/20 14:11:20;;;;;;;22.90;14.48;;;;;;;6.36;70.06;97755.41;5075296;28;20477;-75
2021/01/20 14:13:45;;;;;;;31.42;18.90;;;;;;;6.39;70.76;97758.81;5073790;28;20032;-69
2021/01/20 14:16:10;;;;;;;32.63;16.52;;;;;;;6.43;70.28;97760.44;5077377;28;20459;-73
2021/01/20 14:18:36;;;;;;;30.10;17.92;;;;;;;6.38;71.04;97758.81;5080136;28;20063;-69
2021/01/20 14:21:01;;;;;;;31.85;16.50;;;;;;;6.38;70.49;97762.25;5073655;28;20039;-73
2021/01/20 14:23:27;;;;;;;33.10;16.63;;;;;;;6.55;70.83;97753.38;5075721;28;20106;-75
2021/01/20 14:25:52;;;;;;;31.25;15.52;;;;;;;6.52;69.91;97754.25;5073477;28;20028;-73
2021/01/20 14:28:18;;;;;;;35.40;15.00;;;;;;;6.63;69.46;97754.09;5074210;28;20548;-69
2021/01/20 14:30:43;;;;;;;32.78;14.88;;;;;;;6.53;70.00;97753.41;5073491;28;20036;-75
2021/01/20 14:33:08;;;;;;;32.17;14.52;;;;;;;6.54;70.41;97749.09;5082830;28;20040;-69
2021/01/20 14:35:34;;;;;;;26.33;15.00;;;;;;;6.51;70.62;97741.44;5075105;28;20073;-69
2021/01/20 14:37:59;;;;;;;34.75;15.10;;;;;;;6.46;70.45;97744.09;5089452;28;20119;-75
2021/01/20 14:40:26;;;;;;;26.92;12.30;;;;;;;6.41;69.76;97739.03;5073871;28;20105;-73
2021/01/20 14:42:52;;;;;;;23.02;12.02;;;;;;;6.29;70.37;97749.56;5087877;22;20045;-69
2021/01/20 14:45:17;;;;;;;33.58;16.50;;;;;;;6.33;70.91;97746.03;5005397;28;20029;-69
2021/01/20 14:47:43;;;;;;;33.78;15.88;;;;;;;6.30;70.92;97751.25;5006078;28;20030;-69
2021/01/20 14:50:08;;;;;;;33.72;16.25;;;;;;;6.22;71.26;97742.78;5005347;28;20087;-69
2021/01/20 14:52:34;;;;;;;31.55;14.52;;;;;;;6.16;71.92;97735.19;4998704;28;20109;-69
2021/01/20 14:54:59;;;;;;;24.65;14.07;;;;;;;6.02;72.35;97730.28;5000267;28;20026;-69
2021/01/20 14:57:25;;;;;;;26.70;14.35;;;;;;;5.98;73.00;97730.34;5004986;28;20026;-69
2021/01/20 14:59:50;;;;;;;36.53;17.80;;;;;;;6.05;72.85;97735.38;5002563;28;20037;-69
2021/01/20 15:02:15;;;;;;;33.88;16.63;;;;;;;5.90;73.62;97727.91;5004020;28;20159;-69
2021/01/20 15:04:41;;;;;;;43.05;16.98;;;;;;;5.72;73.82;97728.19;5001465;28;20061;-69
2021/01/20 15:07:06;;;;;;;31.27;17.92;;;;;;;5.63;74.58;97721.47;5005074;28;20142;-69
2021/01/20 15:09:31;;;;;;;33.22;16.90;;;;;;;5.54;74.80;97721.59;5003311;28;20030;-69
2021/01/20 15:11:57;;;;;;;42.47;17.63;;;;;;;5.55;74.97;97713.00;5004659;28;20038;-69
2021/01/20 15:14:22;;;;;;;37.97;17.80;;;;;;;5.45;75.55;97720.00;5003537;28;20187;-69
2021/01/20 15:16:47;;;;;;;34.75;16.13;;;;;;;5.41;75.48;97713.22;5005165;28;20037;-69
2021/01/20 15:19:13;;;;;;;29.27;15.02;;;;;;;5.39;75.34;97707.25;5005018;28;20080;-69
2021/01/20 15:21:39;;;;;;;31.63;15.10;;;;;;;5.38;75.44;97711.56;5004546;28;20093;-69
2021/01/20 15:24:06;;;;;;;29.75;15.68;;;;;;;5.34;75.51;97709.06;4999645;28;20608;-69
2021/01/20 15:26:31;;;;;;;30.75;13.48;;;;;;;5.23;75.43;97698.94;5004649;28;20038;-69
2021/01/20 15:28:57;;;;;;;24.88;12.38;;;;;;;5.16;75.66;97700.72;5004719;28;20033;-69
2021/01/20 15:31:25;;;;;;;28.23;13.50;;;;;;;4.99;76.20;97700.13;5004439;28;20061;-69
2021/01/20 15:33:51;;;;;;;26.75;13.63;;;;;;;4.95;76.23;97692.47;4998226;28;20058;-68
2021/01/20 15:36:16;;;;;;;25.77;12.13;;;;;;;4.84;76.43;97693.47;5003663;28;20145;-68
2021/01/20 15:38:41;;;;;;;30.50;13.55;;;;;;;4.75;76.46;97691.03;4991917;28;20156;-69
2021/01/20 15:41:07;;;;;;;25.83;13.82;;;;;;;4.66;77.40;97688.56;5003598;28;20394;-68
2021/01/20 15:43:32;;;;;;;24.08;13.13;;;;;;;4.55;77.66;97682.72;4998213;28;20482;-68
2021/01/20 15:45:58;;;;;;;27.30;12.70;;;;;;;4.41;78.66;97682.03;4998560;28;20042;-69
2021/01/20 15:48:24;;;;;;;29.55;13.40;;;;;;;4.32;78.89;97682.97;5004569;28;20189;-69
2021/01/20 15:50:50;;;;;;;25.60;12.65;;;;;;;4.24;78.88;97675.34;5004223;28;20029;-69
2021/01/20 15:53:15;;;;;;;23.63;13.27;;;;;;;4.16;79.12;97677.16;5002024;28;20037;-69
2021/01/20 15:55:41;;;;;;;26.73;12.70;;;;;;;4.10;79.29;97674.66;4998278;28;20033;-69
2021/01/20 15:58:06;;;;;;;24.17;12.15;;;;;;;3.96;79.76;97673.94;4998370;28;20068;-69
2021/01/20 16:00:32;;;;;;;25.35;11.63;;;;;;;3.87;79.95;97674.88;4997933;28;20870;-69
2021/01/20 16:02:58;;;;;;;28.92;13.68;;;;;;;3.81;80.42;97675.78;5002710;28;20033;-69
2021/01/20 16:05:23;;;;;;;31.58;15.77;;;;;;;3.76;80.95;97676.69;5004094;28;20034;-68
2021/01/20 16:07:49;;;;;;;34.05;14.90;;;;;;;3.65;81.59;97671.66;4998217;28;20040;-69
2021/01/20 16:10:14;;;;;;;32.75;15.95;;;;;;;3.58;81.73;97670.03;5004097;28;20053;-69
2021/01/20 16:12:40;;;;;;;25.30;14.18;;;;;;;3.54;81.58;97681.16;5003302;28;20030;-69
2021/01/20 16:15:09;;;;;;;27.98;14.65;;;;;;;3.49;81.84;97676.06;4997768;28;20026;-68
2021/01/20 16:17:38;;;;;;;33.75;16.48;;;;;;;3.39;82.13;97687.22;5003951;28;20487;-68
2021/01/20 16:20:06;;;;;;;36.88;16.15;;;;;;;3.38;82.46;97676.97;5003134;28;20108;-69
2021/01/20 16:22:31;;;;;;;29.23;14.85;;;;;;;3.39;82.89;97676.16;4997470;28;20049;-69
2021/01/20 16:24:57;;;;;;;22.92;12.20;;;;;;;3.48;83.27;97671.81;5002733;28;20022;-69
2021/01/20 16:27:22;;;;;;;20.65;12.40;;;;;;;3.56;82.94;97664.88;5002341;28;20034;-69
2021/01/20 16:29:48;;;;;;;19.65;9.45;;;;;;;3.62;82.21;97676.78;5003580;28;20120;-69
2021/01/20 16:32:13;;;;;;;17.70;8.77;;;;;;;3.61;81.82;97673.38;5003316;28;20034;-69
2021/01/20 16:34:38;;;;;;;15.77;9.18;;;;;;;3.85;81.29;97677.44;5003288;28;20026;-69
2021/01/20 16:37:04;;;;;;;20.13;10.48;;;;;;;3.83;80.77;97666.38;5004116;28;20034;-69
2021/01/20 16:39:29;;;;;;;21.23;10.82;;;;;;;3.84;80.89;97668.06;4991503;28;20951;-69
2021/01/20 16:41:54;;;;;;;18.98;10.10;;;;;;;3.64;80.96;97677.66;5003459;28;20363;-70
2021/01/20 16:44:19;;;;;;;20.45;11.15;;;;;;;3.49;80.96;97685.47;5002267;28;20030;-69
2021/01/20 16:46:45;;;;;;;25.20;12.45;;;;;;;3.48;81.40;97681.16;5003640;28;20034;-69
2021/01/20 16:49:10;;;;;;;39.90;15.35;;;;;;;3.41;81.25;97682.94;5000468;28;20514;-69
2021/01/20 16:51:35;;;;;;;30.67;14.60;;;;;;;3.41;81.49;97679.53;4997138;28;20505;-69
2021/01/20 16:54:01;;;;;;;29.63;13.65;;;;;;;3.38;81.58;97682.09;4997172;28;20057;-68
2021/01/20 16:56:26;;;;;;;18.20;10.52;;;;;;;3.33;81.83;97688.09;4997140;28;20704;-69
2021/01/20 16:58:51;;;;;;;20.38;10.65;;;;;;;3.27;81.91;97680.47;4997364;28;21375;-69
2021/01/20 17:01:17;;;;;;;27.10;13.70;;;;;;;3.24;81.62;97677.94;5002898;28;20033;-69
2021/01/20 17:03:42;;;;;;;18.42;9.80;;;;;;;3.42;81.31;97676.94;4998836;28;20029;-69
2021/01/20 17:06:07;;;;;;;17.27;9.50;;;;;;;3.61;81.57;97677.66;5001803;28;20037;-75
2021/01/20 17:08:33;;;;;;;15.98;7.90;;;;;;;3.51;79.87;97683.72;5002505;28;20042;-75
2021/01/20 17:10:58;;;;;;;13.10;7.10;;;;;;;3.47;80.03;97674.34;5003175;28;20030;-74
2021/01/20 17:13:23;;;;;;;21.77;9.45;;;;;;;3.42;80.24;97676.94;5000501;28;20487;-75
2021/01/20 17:15:49;;;;;;;15.82;9.20;;;;;;;3.40;80.44;97678.69;4999181;28;20095;-75
2021/01/20 17:18:15;;;;;;;12.38;8.10;;;;;;;3.34;80.42;97678.75;5001057;28;20052;-75
2021/01/20 17:20:40;;;;;;;14.23;8.27;;;;;;;3.21;80.96;97677.97;5000963;28;20357;-75
2021/01/20 17:23:06;;;;;;;14.43;8.15;;;;;;;3.25;80.88;97674.53;5002626;28;20041;-75
2021/01/20 17:25:31;;;;;;;18.38;9.60;;;;;;;3.22;81.11;97684.78;5007066;28;20038;-75
2021/01/20 17:27:57;;;;;;;22.38;11.48;;;;;;;3.16;81.27;97683.97;5000738;28;20060;-75
2021/01/20 17:30:22;;;;;;;24.42;12.43;;;;;;;3.03;81.79;97683.19;5001002;28;20064;-74
2021/01/20 17:32:47;;;;;;;23.42;12.18;;;;;;;3.01;81.85;97687.47;5005980;28;20402;-73
2021/01/20 17:35:13;;;;;;;27.10;13.13;;;;;;;2.99;81.89;97682.34;5001482;28;20085;-75
2021/01/20 17:37:38;;;;;;;36.97;17.33;;;;;;;2.91;81.95;97685.81;5007070;28;20053;-74
2021/01/20 17:40:04;;;;;;;21.60;11.85;;;;;;;2.89;81.57;97682.41;5007037;28;20029;-74
2021/01/20 17:42:30;;;;;;;28.92;15.25;;;;;;;2.91;81.55;97678.16;5004778;28;20136;-72
2021/01/20 17:44:55;;;;;;;23.50;13.35;;;;;;;2.94;81.25;97681.53;5006984;28;20788;-73
2021/01/20 17:47:21;;;;;;;19.95;11.77;;;;;;;2.93;81.34;97672.16;5006804;28;20803;-74
2021/01/20 17:49:47;;;;;;;22.80;11.77;;;;;;;2.95;81.24;97674.69;5005874;28;20490;-75
2021/01/20 17:52:12;;;;;;;17.98;10.55;;;;;;;2.91;81.38;97673.88;5006685;28;20030;-74
2021/01/20 17:54:38;;;;;;;25.27;12.57;;;;;;;2.87;81.63;97679.03;5000822;28;20081;-73
2021/01/20 17:57:03;;;;;;;27.23;13.68;;;;;;;2.79;81.76;97679.91;5006212;28;20025;-73
2021/01/20 17:59:29;;;;;;;28.88;12.48;;;;;;;2.80;81.20;97663.72;5006491;28;20120;-73
2021/01/20 18:01:54;;;;;;;21.98;13.95;;;;;;;2.86;80.92;97669.66;5006602;28;20503;-73
2021/01/20 18:04:19;;;;;;;31.40;15.43;;;;;;;2.86;80.69;97669.66;5002846;28;20398;-75
2021/01/20 18:06:45;;;;;;;32.58;14.57;;;;;;;2.83;80.67;97666.25;5003024;28;21118;-73
2021/01/20 18:09:11;;;;;;;25.35;13.40;;;;;;;2.84;80.58;97665.38;4993867;28;20026;-74
2021/01/20 18:11:37;;;;;;;21.80;11.88;;;;;;;2.86;80.34;97674.78;5004627;28;20053;-75
2021/01/20 18:14:02;;;;;;;22.10;12.05;;;;;;;2.83;80.62;97676.47;5001325;28;20468;-75
2021/01/20 18:16:27;;;;;;;21.65;11.25;;;;;;;2.83;80.50;97666.25;5000361;28;20040;-74
2021/01/20 18:18:53;;;;;;;20.63;12.38;;;;;;;2.80;80.56;97661.16;5006291;28;20030;-74
2021/01/20 18:21:19;;;;;;;21.33;12.95;;;;;;;2.80;80.24;97656.03;5001583;28;20415;-75
2021/01/20 18:23:48;;;;;;;21.75;12.73;;;;;;;2.77;80.06;97666.28;5001357;28;21355;-74
2021/01/20 18:26:13;;;;;;;23.10;11.73;;;;;;;2.80;79.79;97657.72;5005622;28;20112;-77
2021/01/20 18:28:38;;;;;;;20.60;10.68;;;;;;;2.81;79.34;97651.78;5006152;28;20029;-77
2021/01/20 18:31:04;;;;;;;17.50;9.43;;;;;;;2.81;79.53;97652.63;5006007;28;20457;-76
2021/01/20 18:33:30;;;;;;;19.58;9.60;;;;;;;2.80;79.79;97650.94;5003047;28;20026;-75
2021/01/20 18:35:55;;;;;;;16.55;9.35;;;;;;;2.75;79.65;97652.63;4999933;28;20032;-77
2021/01/20 18:38:20;;;;;;;25.10;10.30;;;;;;;2.65;80.29;97656.09;5005820;28;20036;-75
2021/01/20 18:40:46;;;;;;;19.05;10.07;;;;;;;2.64;80.12;97664.63;5005635;28;20117;-75
2021/01/20 18:43:11;;;;;;;17.48;9.32;;;;;;;2.67;79.92;97667.19;5001609;28;20121;-75
2021/01/20 18:45:36;;;;;;;22.33;10.70;;;;;;;2.79;79.79;97662.00;5005706;28;20079;-75
2021/01/20 18:48:02;;;;;;;15.35;9.20;;;;;;;2.68;79.38;97661.22;5005732;28;20049;-75
2021/01/20 18:50:27;;;;;;;16.90;9.60;;;;;;;2.72;79.17;97657.78;5005437;28;20084;-75
2021/01/20 18:52:53;;;;;;;19.77;10.68;;;;;;;2.70;79.30;97662.03;5004402;28;20057;-75
2021/01/20 18:55:18;;;;;;;18.52;8.95;;;;;;;2.78;78.77;97646.66;5005600;28;20061;-75
2021/01/20 18:57:43;;;;;;;20.02;10.10;;;;;;;2.79;79.22;97654.31;5005496;28;20029;-75
2021/01/20 19:00:09;;;;;;;18.15;9.18;;;;;;;2.74;79.24;97650.94;5005491;28;20068;-75
2021/01/20 19:02:34;;;;;;;17.98;9.85;;;;;;;2.72;79.29;97652.66;5005030;28;20457;-75
2021/01/20 19:05:00;;;;;;;18.35;9.55;;;;;;;2.63;80.44;97654.41;4998645;28;20022;-75
2021/01/20 19:07:25;;;;;;;23.10;10.43;;;;;;;2.53;80.67;97651.06;5002297;28;20096;-75
2021/01/20 19:09:51;;;;;;;21.60;11.35;;;;;;;2.42;81.33;97640.00;4992913;28;20073;-75
2021/01/20 19:12:17;;;;;;;23.13;10.55;;;;;;;2.37;82.04;97651.94;5002231;28;20072;-75
2021/01/20 19:14:43;;;;;;;21.83;10.73;;;;;;;2.38;81.89;97646.00;5000960;28;20037;-75
2021/01/20 19:17:09;;;;;;;22.45;11.48;;;;;;;2.37;81.47;97646.84;5003983;28;20056;-75
2021/01/20 19:19:34;;;;;;;19.65;10.43;;;;;;;2.39;81.54;97640.03;5004699;28;20033;-75
2021/01/20 19:22:00;;;;;;;18.48;10.82;;;;;;;2.34;81.69;97645.16;5004756;28;20030;-75
2021/01/20 19:24:25;;;;;;;19.52;11.00;;;;;;;2.35;81.52;97640.91;5004473;28;20021;-75
2021/01/20 19:26:50;;;;;;;20.23;10.23;;;;;;;2.31;81.56;97640.91;5004653;28;20521;-75
2021/01/20 19:29:16;;;;;;;21.13;12.05;;;;;;;2.43;81.84;97649.41;5004853;28;20029;-76
2021/01/20 19:31:42;;;;;;;20.42;11.20;;;;;;;2.38;81.21;97646.00;5001747;28;20029;-77
2021/01/20 19:34:08;;;;;;;25.30;14.80;;;;;;;2.42;80.94;97638.31;5004309;28;20042;-77
2021/01/20 19:36:34;;;;;;;24.88;14.00;;;;;;;2.43;80.90;97634.91;5003204;28;20034;-75
2021/01/20 19:39:00;;;;;;;21.60;13.38;;;;;;;2.49;80.39;97636.59;5003599;28;20126;-75
2021/01/20 19:41:26;;;;;;;26.95;16.35;;;;;;;2.58;80.97;97628.88;5001892;28;20511;-74
2021/01/20 19:43:52;;;;;;;24.52;12.23;;;;;;;2.57;80.33;97622.06;5004437;28;20104;-75
2021/01/20 19:46:17;;;;;;;19.35;10.50;;;;;;;2.54;80.44;97632.28;5002073;28;20053;-75
2021/01/20 19:48:42;;;;;;;24.05;12.13;;;;;;;2.53;80.50;97625.50;5003614;28;20030;-75
2021/01/20 19:51:08;;;;;;;21.45;12.13;;;;;;;2.40;81.15;97628.94;5002871;28;20034;-76
2021/01/20 19:53:33;;;;;;;30.02;11.48;;;;;;;2.35;81.22;97630.69;5001007;28;20034;-75
2021/01/20 19:55:59;;;;;;;24.40;11.57;;;;;;;2.29;81.33;97632.41;5000729;28;20026;-75
2021/01/20 19:58:24;;;;;;;21.30;11.68;;;;;;;2.38;81.68;97638.34;5002405;28;20034;-75
2021/01/20 20:00:51;;;;;;;19.13;11.23;;;;;;;2.41;80.53;97631.50;5003747;28;20446;-75
2021/01/20 20:03:16;;;;;;;31.95;17.83;;;;;;;2.36;80.25;97627.25;5003272;28;20030;-75
2021/01/20 20:05:41;;;;;;;20.83;11.75;;;;;;;2.50;78.81;97635.72;5000980;28;20026;-75
2021/01/20 20:08:07;;;;;;;25.95;12.73;;;;;;;2.49;78.40;97628.91;5002590;28;20084;-75
2021/01/20 20:10:32;;;;;;;21.33;11.05;;;;;;;2.51;78.98;97628.03;5002797;28;20068;-75
2021/01/20 20:12:58;;;;;;;20.17;10.13;;;;;;;2.46;79.71;97632.31;5003968;28;20040;-75